Time;durP1;ratioP1;P1;durP2;ratioP2;P2;SDS_P1;SDS_P2;PMS_P1;PMS_P2;Temp;Humidity;BMP_temperature;BMP_pressure;BME280_temperature;BME280_humidity;BME280_pressure;Samples;Min_cycle;Max_cycle;Signal;HPM_P1;HPM_P2
2023/07/30 00:02:19;;;;;;;1.30;1.20;;;21.10;65.60;;;;;;5056474;28;20028;-78
2023/07/30 00:04:45;;;;;;;2.22;1.52;;;21.00;65.60;;;;;;5056077;28;20496;-78
2023/07/30 00:07:12;;;;;;;2.13;1.48;;;21.00;65.60;;;;;;5055936;28;20090;-78
2023/07/30 00:09:38;;;;;;;1.55;1.30;;;21.00;65.70;;;;;;5039892;28;20052;-78
2023/07/30 00:12:05;;;;;;;1.95;1.40;;;21.00;65.70;;;;;;5072682;28;20036;-78
2023/07/30 00:14:31;;;;;;;1.63;1.40;;;21.00;65.70;;;;;;5055928;28;20051;-77
2023/07/30 00:16:57;;;;;;;1.88;1.40;;;20.90;65.70;;;;;;5055983;28;20028;-77
2023/07/30 00:19:23;;;;;;;2.47;1.45;;;20.90;65.70;;;;;;5039460;28;20081;-78
2023/07/30 00:21:48;;;;;;;2.45;1.30;;;20.90;65.80;;;;;;5055765;28;20039;-78
2023/07/30 00:24:14;;;;;;;2.08;1.30;;;20.80;65.80;;;;;;5039392;28;20054;-78
2023/07/30 00:26:40;;;;;;;2.03;1.40;;;20.80;65.80;;;;;;5056807;28;20032;-78
2023/07/30 00:29:06;;;;;;;2.05;1.40;;;20.80;65.90;;;;;;5038998;28;20158;-77
2023/07/30 00:31:32;;;;;;;2.70;1.50;;;20.70;65.90;;;;;;5055806;28;20124;-78
2023/07/30 00:33:58;;;;;;;1.80;1.40;;;20.70;65.90;;;;;;5055686;28;20056;-77
2023/07/30 00:36:24;;;;;;;2.03;1.60;;;20.70;65.90;;;;;;5055601;28;20439;-78
2023/07/30 00:38:49;;;;;;;1.55;1.40;;;20.70;65.90;;;;;;5006263;28;20472;-78
2023/07/30 00:41:15;;;;;;;2.90;1.80;;;20.60;65.90;;;;;;5038970;28;20086;-78
2023/07/30 00:43:41;;;;;;;2.80;1.48;;;20.60;65.90;;;;;;5039155;28;20044;-77
2023/07/30 00:46:08;;;;;;;2.42;1.42;;;20.60;65.90;;;;;;5039970;28;20046;-78
2023/07/30 00:48:34;;;;;;;1.70;1.50;;;20.60;65.90;;;;;;5023330;28;20452;-77
2023/07/30 00:51:00;;;;;;;2.22;1.50;;;20.50;65.90;;;;;;5039124;28;20123;-77
2023/07/30 00:53:29;;;;;;;2.47;1.50;;;20.50;66.00;;;;;;5038686;28;20064;-78
2023/07/30 00:55:56;;;;;;;1.35;1.20;;;20.50;66.00;;;;;;5055443;28;20103;-78
2023/07/30 00:58:22;;;;;;;1.52;1.20;;;20.50;66.00;;;;;;5055461;28;20124;-78
2023/07/30 01:00:48;;;;;;;1.75;1.48;;;20.50;66.00;;;;;;5038875;28;20082;-78
2023/07/30 01:03:14;;;;;;;2.15;1.60;;;20.40;66.00;;;;;;5038790;28;20037;-78
2023/07/30 01:05:40;;;;;;;1.50;1.40;;;20.40;66.00;;;;;;5006620;28;20028;-78
2023/07/30 01:08:05;;;;;;;2.05;1.20;;;20.40;66.00;;;;;;5038879;28;20496;-78
2023/07/30 01:10:32;;;;;;;2.08;1.45;;;20.40;66.00;;;;;;5038963;28;20044;-78
2023/07/30 01:13:03;;;;;;;2.83;1.45;;;20.30;66.00;;;;;;5038725;28;20039;-78
2023/07/30 01:15:30;;;;;;;1.92;1.50;;;20.30;66.10;;;;;;5038439;28;20039;-77
2023/07/30 01:17:56;;;;;;;2.03;1.50;;;20.30;66.10;;;;;;5055493;28;20373;-78
2023/07/30 01:20:22;;;;;;;2.22;1.60;;;20.30;66.20;;;;;;5055053;28;20048;-78
2023/07/30 01:22:48;;;;;;;2.33;1.20;;;20.30;66.20;;;;;;5039424;28;20032;-78
2023/07/30 01:25:17;;;;;;;1.30;1.20;;;20.20;66.20;;;;;;5038811;28;20042;-77
2023/07/30 01:27:54;;;;;;;1.80;1.40;;;20.20;66.20;;;;;;5055442;28;20115;-78
2023/07/30 01:30:32;;;;;;;2.03;1.42;;;20.20;66.30;;;;;;5055962;28;20035;-78
2023/07/30 01:32:58;;;;;;;1.58;1.45;;;20.20;66.30;;;;;;5055894;28;20035;-78
2023/07/30 01:35:27;;;;;;;1.95;1.52;;;20.10;66.30;;;;;;5073581;28;20039;-78
2023/07/30 01:37:53;;;;;;;2.53;1.70;;;20.10;66.40;;;;;;5054937;28;20024;-78
2023/07/30 01:40:20;;;;;;;1.70;1.40;;;20.10;66.30;;;;;;5039443;28;20078;-78
2023/07/30 01:42:45;;;;;;;1.70;1.42;;;20.10;66.40;;;;;;5059237;28;20091;-78
2023/07/30 01:45:11;;;;;;;1.98;1.45;;;20.10;66.40;;;;;;5076728;28;20032;-77
2023/07/30 01:47:37;;;;;;;2.63;1.42;;;20.00;66.40;;;;;;5058818;28;20569;-78
2023/07/30 01:50:03;;;;;;;4.03;1.73;;;20.00;66.40;;;;;;5059078;28;20377;-78
2023/07/30 01:52:29;;;;;;;1.67;1.50;;;20.00;66.40;;;;;;5058724;28;20354;-78
2023/07/30 01:54:56;;;;;;;2.65;1.50;;;20.00;66.40;;;;;;5059332;28;20035;-78
2023/07/30 01:57:23;;;;;;;1.65;1.48;;;19.90;66.40;;;;;;5042860;28;20033;-78
2023/07/30 01:59:49;;;;;;;2.63;1.50;;;19.90;66.50;;;;;;5075960;28;20475;-78
2023/07/30 02:02:14;;;;;;;1.73;1.50;;;19.90;66.50;;;;;;5041936;28;20040;-78
2023/07/30 02:04:40;;;;;;;1.95;1.45;;;19.90;66.50;;;;;;5009190;28;20040;-78
2023/07/30 02:07:06;;;;;;;2.28;1.52;;;19.90;66.60;;;;;;5058439;28;20500;-78
2023/07/30 02:09:31;;;;;;;2.78;1.90;;;19.80;66.50;;;;;;5008990;28;20082;-78
2023/07/30 02:12:00;;;;;;;2.45;1.67;;;19.80;66.50;;;;;;5010162;28;20032;-78
2023/07/30 02:14:26;;;;;;;2.40;1.58;;;19.80;66.60;;;;;;5041747;28;20086;-78
2023/07/30 02:16:52;;;;;;;1.65;1.50;;;19.80;66.60;;;;;;5025959;28;20032;-78
2023/07/30 02:19:18;;;;;;;2.45;1.67;;;19.80;66.60;;;;;;5058746;28;20522;-77
2023/07/30 02:21:44;;;;;;;2.35;1.70;;;19.80;66.60;;;;;;5041682;28;20039;-78
2023/07/30 02:24:11;;;;;;;2.38;1.80;;;19.80;66.60;;;;;;5041364;28;20040;-78
2023/07/30 02:26:40;;;;;;;2.53;1.80;;;19.70;66.60;;;;;;5058169;28;20127;-78
2023/07/30 02:29:06;;;;;;;2.38;1.60;;;19.70;66.70;;;;;;5058158;28;20039;-78
2023/07/30 02:31:32;;;;;;;2.55;1.73;;;19.70;66.60;;;;;;5058181;28;20033;-78
2023/07/30 02:33:58;;;;;;;2.78;1.80;;;19.70;66.60;;;;;;5041327;28;20031;-78
2023/07/30 02:36:24;;;;;;;2.78;1.80;;;19.70;66.70;;;;;;5042028;28;20033;-78
2023/07/30 02:38:50;;;;;;;2.30;1.70;;;19.70;66.70;;;;;;5057484;28;20039;-78
2023/07/30 02:41:16;;;;;;;2.53;1.90;;;19.70;66.70;;;;;;5075695;28;20025;-78
2023/07/30 02:43:42;;;;;;;2.42;1.73;;;19.60;66.70;;;;;;5058377;28;20063;-78
2023/07/30 02:46:08;;;;;;;4.38;2.05;;;19.60;66.70;;;;;;5075372;28;20470;-78
2023/07/30 02:48:33;;;;;;;3.30;1.80;;;19.60;66.70;;;;;;5057739;28;20357;-78
2023/07/30 02:50:59;;;;;;;2.90;2.00;;;19.60;66.70;;;;;;5057751;28;20036;-78
2023/07/30 02:53:25;;;;;;;2.20;1.65;;;19.60;66.70;;;;;;5057478;28;20036;-77
2023/07/30 02:55:51;;;;;;;2.30;1.60;;;19.60;66.80;;;;;;5058236;28;20407;-77
2023/07/30 02:58:16;;;;;;;3.45;1.85;;;19.60;66.80;;;;;;5040899;28;20485;-78
2023/07/30 03:00:42;;;;;;;4.43;1.80;;;19.50;66.70;;;;;;5040704;28;20078;-77
2023/07/30 03:03:08;;;;;;;3.05;1.70;;;19.50;66.70;;;;;;5041601;28;20036;-78
2023/07/30 03:05:34;;;;;;;2.08;1.60;;;19.50;66.70;;;;;;5040638;28;20368;-78
2023/07/30 03:07:59;;;;;;;2.50;1.60;;;19.50;66.80;;;;;;5073969;28;20115;-78
2023/07/30 03:10:25;;;;;;;2.80;1.63;;;19.50;66.80;;;;;;5040598;28;20120;-78
2023/07/30 03:12:51;;;;;;;2.10;1.75;;;19.50;66.80;;;;;;5040621;28;20035;-78
2023/07/30 03:15:16;;;;;;;1.83;1.60;;;19.50;66.80;;;;;;5040302;28;20033;-78
2023/07/30 03:17:42;;;;;;;3.08;1.60;;;19.50;66.80;;;;;;5040742;28;20036;-78
2023/07/30 03:20:08;;;;;;;2.97;1.88;;;19.50;66.80;;;;;;5056746;28;20109;-78
2023/07/30 03:22:34;;;;;;;2.80;1.70;;;19.50;66.80;;;;;;5057144;28;20024;-78
2023/07/30 03:25:00;;;;;;;2.65;1.73;;;19.50;66.80;;;;;;5057591;28;20039;-77
2023/07/30 03:27:26;;;;;;;2.78;1.50;;;19.40;66.80;;;;;;5040574;28;20043;-78
2023/07/30 03:29:52;;;;;;;3.03;1.92;;;19.40;66.90;;;;;;5057256;28;20033;-78
2023/07/30 03:32:17;;;;;;;2.80;1.80;;;19.40;66.80;;;;;;5057613;28;20045;-78
2023/07/30 03:34:43;;;;;;;2.33;1.70;;;19.40;66.90;;;;;;5039948;28;20044;-78
2023/07/30 03:37:09;;;;;;;3.28;1.90;;;19.40;66.90;;;;;;5040373;28;20481;-78
2023/07/30 03:39:35;;;;;;;3.45;1.90;;;19.40;66.90;;;;;;5040073;28;20032;-78
2023/07/30 03:42:01;;;;;;;2.47;1.80;;;19.40;66.90;;;;;;5039991;28;20065;-78
2023/07/30 03:44:27;;;;;;;2.90;1.67;;;19.40;67.00;;;;;;5039960;28;20037;-78
2023/07/30 03:46:53;;;;;;;4.18;2.22;;;19.40;67.00;;;;;;5056353;28;20550;-78
2023/07/30 03:49:19;;;;;;;3.67;1.83;;;19.40;67.00;;;;;;5056370;28;20060;-78
2023/07/30 03:51:44;;;;;;;3.60;2.08;;;19.30;66.90;;;;;;5023193;28;20089;-78
2023/07/30 03:54:10;;;;;;;3.47;2.00;;;19.30;66.90;;;;;;5040021;28;20029;-78
2023/07/30 03:56:36;;;;;;;2.97;1.80;;;19.30;67.00;;;;;;5039697;28;20393;-78
2023/07/30 03:59:01;;;;;;;4.13;1.90;;;19.30;67.00;;;;;;5040329;28;20119;-78
2023/07/30 04:01:28;;;;;;;2.47;1.60;;;19.30;67.00;;;;;;5039654;28;20530;-78
2023/07/30 04:03:54;;;;;;;3.25;1.88;;;19.30;67.00;;;;;;5038726;28;20036;-78
2023/07/30 04:06:20;;;;;;;2.85;1.85;;;19.30;67.00;;;;;;5039541;28;20094;-78
2023/07/30 04:08:46;;;;;;;3.00;1.92;;;19.30;67.00;;;;;;5055992;28;20036;-78
2023/07/30 04:11:11;;;;;;;3.00;1.90;;;19.30;67.00;;;;;;5074660;28;20528;-78
2023/07/30 04:13:37;;;;;;;2.85;1.60;;;19.30;67.00;;;;;;5055783;28;20040;-78
2023/07/30 04:16:06;;;;;;;2.35;1.67;;;19.30;67.10;;;;;;5039832;28;20556;-78
2023/07/30 04:18:33;;;;;;;5.20;1.67;;;19.30;67.10;;;;;;5039459;28;20017;-78
2023/07/30 04:20:58;;;;;;;3.15;1.80;;;19.30;67.80;;;;;;5056341;28;20421;-78
2023/07/30 04:23:24;;;;;;;3.30;1.90;;;19.30;67.10;;;;;;5039261;28;20035;-78
2023/07/30 04:25:50;;;;;;;3.00;1.90;;;19.20;67.10;;;;;;5056122;28;20123;-78
2023/07/30 04:28:16;;;;;;;2.85;1.77;;;19.30;67.20;;;;;;5056007;28;20024;-78
2023/07/30 04:30:42;;;;;;;3.58;2.10;;;19.20;67.10;;;;;;5039479;28;20029;-78
2023/07/30 04:33:08;;;;;;;3.00;2.00;;;19.20;67.20;;;;;;5074037;28;20097;-78
2023/07/30 04:35:36;;;;;;;3.50;2.13;;;19.20;67.20;;;;;;5055641;28;20128;-78
2023/07/30 04:38:02;;;;;;;4.15;2.70;;;19.20;67.20;;;;;;5039068;28;20488;-78
2023/07/30 04:40:29;;;;;;;3.00;2.08;;;19.20;67.20;;;;;;5039961;28;20102;-79
2023/07/30 04:42:55;;;;;;;3.08;1.85;;;19.20;67.20;;;;;;5023132;28;20082;-78
2023/07/30 04:45:21;;;;;;;3.63;2.00;;;19.20;67.20;;;;;;5055457;28;20040;-78
2023/07/30 04:47:48;;;;;;;3.35;1.90;;;19.20;67.20;;;;;;5071893;28;20029;-78
2023/07/30 04:50:14;;;;;;;3.92;2.30;;;19.20;67.20;;;;;;5055316;28;20074;-78
2023/07/30 04:52:40;;;;;;;3.60;2.00;;;19.20;67.30;;;;;;5038459;28;20481;-78
2023/07/30 04:55:06;;;;;;;3.33;1.77;;;19.20;67.30;;;;;;5022737;28;20033;-78
2023/07/30 04:57:32;;;;;;;3.67;1.90;;;19.20;67.30;;;;;;5038773;28;20062;-78
2023/07/30 04:59:57;;;;;;;3.42;1.90;;;19.20;67.30;;;;;;5055243;28;20033;-78
2023/07/30 05:02:23;;;;;;;2.65;1.88;;;19.20;67.30;;;;;;5006249;28;20046;-78
2023/07/30 05:04:49;;;;;;;3.40;2.13;;;19.20;67.30;;;;;;5038726;28;20131;-78
2023/07/30 05:07:14;;;;;;;2.78;1.90;;;19.20;67.30;;;;;;5039200;28;20040;-78
2023/07/30 05:09:40;;;;;;;2.53;1.73;;;19.20;67.40;;;;;;5055204;28;20516;-78
2023/07/30 05:12:06;;;;;;;3.17;1.85;;;19.20;67.30;;;;;;5038817;28;20032;-78
2023/07/30 05:14:32;;;;;;;3.58;2.20;;;19.20;67.40;;;;;;5056091;28;20033;-79
2023/07/30 05:16:58;;;;;;;2.55;1.90;;;19.20;67.40;;;;;;5043189;28;20358;-78
2023/07/30 05:19:23;;;;;;;3.67;1.95;;;19.20;67.40;;;;;;5059158;28;20043;-78
2023/07/30 05:21:49;;;;;;;3.10;2.10;;;19.20;67.40;;;;;;5059245;28;20044;-78
2023/07/30 05:24:15;;;;;;;2.42;1.88;;;19.20;67.40;;;;;;5042629;28;20047;-78
2023/07/30 05:26:40;;;;;;;3.42;2.15;;;19.20;67.40;;;;;;5026241;28;20040;-79
2023/07/30 05:29:06;;;;;;;3.25;2.08;;;19.20;67.50;;;;;;5077906;28;20037;-78
2023/07/30 05:31:32;;;;;;;3.13;1.98;;;19.20;67.40;;;;;;5042370;28;20036;-77
2023/07/30 05:33:57;;;;;;;2.95;2.17;;;19.20;67.50;;;;;;5075772;28;20059;-78
2023/07/30 05:36:23;;;;;;;3.60;2.25;;;19.20;67.50;;;;;;5042405;28;20033;-77
2023/07/30 05:38:49;;;;;;;3.88;2.17;;;19.20;67.40;;;;;;5025793;28;20044;-78
2023/07/30 05:41:15;;;;;;;3.60;2.15;;;19.20;68.10;;;;;;5042791;28;20028;-78
2023/07/30 05:43:40;;;;;;;3.15;2.15;;;19.30;67.50;;;;;;5009142;28;20480;-77
2023/07/30 05:46:07;;;;;;;3.30;2.15;;;19.20;67.50;;;;;;5041951;28;20036;-77
2023/07/30 05:48:32;;;;;;;3.03;2.00;;;19.30;67.50;;;;;;5058729;28;20067;-80
2023/07/30 05:50:58;;;;;;;3.55;2.33;;;19.30;67.50;;;;;;5058689;28;20110;-78
2023/07/30 05:53:24;;;;;;;2.85;1.98;;;19.30;67.50;;;;;;5058851;28;20074;-78
2023/07/30 05:55:50;;;;;;;3.88;2.33;;;19.30;67.60;;;;;;5058697;28;20415;-78
2023/07/30 05:58:16;;;;;;;4.22;2.17;;;19.30;67.60;;;;;;5058582;28;20074;-77
2023/07/30 06:00:41;;;;;;;3.92;2.35;;;19.30;67.60;;;;;;5058474;28;20028;-78
2023/07/30 06:03:09;;;;;;;3.65;2.28;;;19.30;67.60;;;;;;5076074;28;20032;-78
2023/07/30 06:05:42;;;;;;;3.92;2.35;;;19.30;67.60;;;;;;5058943;28;20453;-78
2023/07/30 06:08:08;;;;;;;3.42;2.17;;;19.30;67.60;;;;;;5076770;28;20377;-78
2023/07/30 06:10:40;;;;;;;3.58;2.13;;;19.40;67.60;;;;;;5058543;28;20032;-78
2023/07/30 06:13:06;;;;;;;3.75;2.30;;;19.30;67.60;;;;;;5042538;28;20033;-77
2023/07/30 06:15:33;;;;;;;4.45;2.28;;;19.40;67.60;;;;;;5058164;28;20028;-78
2023/07/30 06:18:00;;;;;;;5.00;2.53;;;19.40;67.60;;;;;;5075019;28;20393;-78
2023/07/30 06:20:26;;;;;;;2.85;2.08;;;19.40;67.60;;;;;;5058287;28;20044;-78
2023/07/30 06:22:51;;;;;;;4.15;2.70;;;19.40;67.60;;;;;;5058539;28;20479;-78
2023/07/30 06:25:17;;;;;;;3.45;1.92;;;19.40;67.60;;;;;;5076566;28;20052;-77
2023/07/30 06:27:43;;;;;;;4.25;2.45;;;19.40;67.60;;;;;;5057531;28;20457;-77
2023/07/30 06:30:09;;;;;;;4.00;2.30;;;19.50;67.80;;;;;;5042097;28;20033;-78
2023/07/30 06:32:36;;;;;;;3.80;2.28;;;19.40;67.70;;;;;;5058687;28;20032;-78
2023/07/30 06:35:02;;;;;;;4.28;2.58;;;19.50;67.70;;;;;;5041560;28;20047;-78
2023/07/30 06:37:28;;;;;;;3.92;2.35;;;19.50;67.70;;;;;;5042381;28;20028;-78
2023/07/30 06:39:54;;;;;;;3.85;2.45;;;19.40;67.60;;;;;;5058433;28;20111;-78
2023/07/30 06:42:20;;;;;;;3.17;2.35;;;19.50;67.70;;;;;;5009338;28;20430;-78
2023/07/30 06:44:45;;;;;;;3.67;2.22;;;19.50;67.70;;;;;;5041190;28;20036;-78
2023/07/30 06:47:11;;;;;;;3.88;2.25;;;19.50;67.70;;;;;;5041599;28;20119;-78
2023/07/30 06:49:37;;;;;;;3.97;2.65;;;19.50;67.70;;;;;;5057904;28;20036;-78
2023/07/30 06:52:03;;;;;;;2.38;2.08;;;19.50;67.70;;;;;;5057817;28;20056;-78
2023/07/30 06:54:29;;;;;;;6.18;2.83;;;19.60;67.70;;;;;;5058274;28;20032;-78
2023/07/30 06:56:55;;;;;;;4.97;2.60;;;19.60;67.70;;;;;;5040963;28;20033;-78
2023/07/30 06:59:21;;;;;;;3.42;2.30;;;19.60;67.70;;;;;;5057293;28;20473;-76
2023/07/30 07:01:46;;;;;;;3.95;2.30;;;19.60;67.60;;;;;;5040724;28;20031;-81
2023/07/30 07:04:12;;;;;;;4.05;2.35;;;19.60;67.60;;;;;;5057727;28;20032;-79
2023/07/30 07:06:38;;;;;;;3.10;2.00;;;19.70;67.70;;;;;;5008100;28;20036;-84
2023/07/30 07:09:04;;;;;;;4.30;2.30;;;19.70;67.60;;;;;;5024970;28;20029;-79
2023/07/30 07:11:29;;;;;;;4.50;2.22;;;19.70;67.60;;;;;;5008138;28;20036;-78
2023/07/30 07:13:55;;;;;;;4.35;2.22;;;19.70;67.60;;;;;;5040484;28;20029;-79
2023/07/30 07:16:21;;;;;;;4.13;2.47;;;19.70;67.50;;;;;;5040652;28;20033;-81
2023/07/30 07:18:48;;;;;;;4.25;2.25;;;19.80;67.60;;;;;;5040543;28;20401;-77
2023/07/30 07:21:14;;;;;;;3.83;2.60;;;19.80;67.60;;;;;;5040260;28;20056;-77
2023/07/30 07:23:40;;;;;;;3.67;2.33;;;19.80;67.60;;;;;;5056701;28;20115;-78
2023/07/30 07:26:06;;;;;;;4.18;2.45;;;19.80;67.50;;;;;;5040448;28;20123;-79
2023/07/30 07:28:32;;;;;;;4.50;2.53;;;19.90;67.50;;;;;;5023741;28;20489;-79
2023/07/30 07:30:57;;;;;;;4.63;2.40;;;19.90;67.50;;;;;;5024628;28;20025;-79
2023/07/30 07:33:23;;;;;;;3.92;2.40;;;19.90;67.50;;;;;;5056774;28;20492;-78
2023/07/30 07:35:49;;;;;;;4.20;2.47;;;20.00;68.20;;;;;;5056723;28;20044;-78
2023/07/30 07:38:14;;;;;;;3.80;2.42;;;20.00;67.50;;;;;;5056979;28;20032;-77
2023/07/30 07:40:40;;;;;;;4.28;2.70;;;20.00;67.50;;;;;;5039829;28;20452;-78
2023/07/30 07:43:07;;;;;;;3.72;2.42;;;20.10;67.50;;;;;;5057066;28;20056;-79
2023/07/30 07:45:33;;;;;;;4.20;2.63;;;20.10;67.40;;;;;;5056577;28;20036;-78
2023/07/30 07:47:59;;;;;;;3.90;2.50;;;20.10;67.40;;;;;;5039881;28;20419;-78
2023/07/30 07:50:25;;;;;;;4.70;2.60;;;20.20;67.40;;;;;;5056424;28;20127;-79
2023/07/30 07:52:51;;;;;;;4.10;2.65;;;20.10;67.30;;;;;;5040177;28;20385;-81
2023/07/30 07:55:17;;;;;;;5.07;2.63;;;20.20;67.30;;;;;;5023406;28;20047;-78
2023/07/30 07:57:42;;;;;;;3.95;2.25;;;20.20;67.30;;;;;;5072932;28;20047;-78
2023/07/30 08:00:08;;;;;;;4.43;2.55;;;20.30;67.20;;;;;;5056199;28;20038;-77
2023/07/30 08:02:41;;;;;;;4.72;2.50;;;20.30;67.20;;;;;;5057402;28;20021;-77
2023/07/30 08:05:07;;;;;;;5.10;2.47;;;20.40;67.20;;;;;;5072751;28;20048;-78
2023/07/30 08:07:33;;;;;;;4.32;2.25;;;20.40;67.10;;;;;;5039498;28;20048;-77
2023/07/30 08:09:58;;;;;;;4.18;2.33;;;20.40;67.10;;;;;;5039820;28;20025;-77
2023/07/30 08:12:24;;;;;;;5.85;2.50;;;20.40;67.00;;;;;;5055755;28;20032;-78
2023/07/30 08:14:50;;;;;;;3.50;2.20;;;20.50;67.00;;;;;;5023831;28;20038;-79
2023/07/30 08:17:16;;;;;;;3.33;2.28;;;20.50;67.00;;;;;;5073514;28;20397;-78
2023/07/30 08:19:42;;;;;;;3.28;2.05;;;20.60;67.00;;;;;;5039414;28;20417;-79
2023/07/30 08:22:07;;;;;;;4.90;2.50;;;20.60;66.90;;;;;;5040077;28;20460;-78
2023/07/30 08:24:33;;;;;;;4.22;2.10;;;20.60;66.90;;;;;;5006654;28;20503;-79
2023/07/30 08:26:59;;;;;;;3.45;2.30;;;20.60;66.90;;;;;;5007386;28;20435;-78
2023/07/30 08:29:24;;;;;;;3.28;2.17;;;20.70;66.80;;;;;;5039430;28;20502;-79
2023/07/30 08:31:50;;;;;;;4.20;2.40;;;20.70;66.80;;;;;;5039470;28;20078;-78
2023/07/30 08:34:16;;;;;;;2.28;1.83;;;20.70;66.80;;;;;;5039390;28;20043;-78
2023/07/30 08:36:41;;;;;;;2.65;2.03;;;20.80;66.70;;;;;;5055354;28;20085;-78
2023/07/30 08:39:08;;;;;;;2.55;1.90;;;20.80;66.70;;;;;;5039603;28;20157;-79
2023/07/30 08:41:34;;;;;;;3.33;1.92;;;20.80;66.60;;;;;;5056598;28;20123;-78
2023/07/30 08:44:00;;;;;;;4.10;2.13;;;20.90;66.60;;;;;;5039431;28;20560;-79
2023/07/30 08:46:26;;;;;;;4.55;2.28;;;20.90;66.60;;;;;;5006155;28;20036;-79
2023/07/30 08:48:53;;;;;;;3.13;2.28;;;20.90;66.50;;;;;;5039735;28;20484;-80
2023/07/30 08:51:21;;;;;;;3.63;2.05;;;21.00;66.50;;;;;;5073017;28;20059;-78
2023/07/30 08:53:48;;;;;;;4.63;2.17;;;21.00;66.50;;;;;;5055541;28;20185;-80
2023/07/30 08:56:13;;;;;;;3.15;1.98;;;21.10;66.50;;;;;;5055665;28;20028;-81
2023/07/30 08:58:40;;;;;;;3.60;2.03;;;21.10;66.30;;;;;;5039796;28;20032;-80
2023/07/30 09:01:11;;;;;;;3.25;1.92;;;21.10;66.30;;;;;;5038812;28;20544;-78
2023/07/30 09:03:40;;;;;;;5.53;2.40;;;21.20;66.30;;;;;;5039332;28;20104;-78
2023/07/30 09:06:09;;;;;;;3.13;1.92;;;21.20;66.30;;;;;;5055345;28;20043;-78
2023/07/30 09:08:35;;;;;;;3.08;1.85;;;21.30;66.30;;;;;;5073230;28;20108;-78
2023/07/30 09:11:11;;;;;;;4.13;2.00;;;21.30;66.20;;;;;;5055420;28;20068;-79
2023/07/30 09:13:41;;;;;;;2.83;1.90;;;21.30;66.20;;;;;;5073002;28;20024;-78
2023/07/30 09:16:14;;;;;;;2.80;2.00;;;21.40;66.10;;;;;;5055515;28;20123;-77
2023/07/30 09:18:45;;;;;;;3.10;1.90;;;21.40;66.00;;;;;;5039065;28;20033;-77
2023/07/30 09:21:12;;;;;;;4.22;2.10;;;21.40;66.00;;;;;;5054761;28;20049;-77
2023/07/30 09:23:46;;;;;;;4.28;1.90;;;21.50;66.00;;;;;;5073381;28;20032;-79
2023/07/30 09:26:12;;;;;;;2.13;1.70;;;21.50;65.90;;;;;;5055614;28;20036;-82
2023/07/30 09:28:39;;;;;;;4.60;2.10;;;21.60;65.80;;;;;;5054673;28;20036;-83
2023/07/30 09:31:07;;;;;;;2.92;1.92;;;21.60;65.80;;;;;;5055253;28;20032;-79
2023/07/30 09:33:34;;;;;;;3.95;1.80;;;21.60;65.70;;;;;;5055574;28;20028;-78
2023/07/30 09:36:04;;;;;;;2.60;1.70;;;21.60;65.70;;;;;;5055107;28;20465;-82
2023/07/30 09:38:32;;;;;;;2.90;1.83;;;21.70;65.60;;;;;;5055082;28;20116;-80
2023/07/30 09:41:02;;;;;;;3.78;1.90;;;21.70;65.60;;;;;;5055339;28;20441;-78
2023/07/30 09:43:30;;;;;;;3.53;1.77;;;21.70;65.50;;;;;;5054981;28;20115;-79
2023/07/30 09:46:05;;;;;;;2.70;1.75;;;21.80;65.60;;;;;;5055271;28;20052;-80
2023/07/30 09:48:35;;;;;;;2.63;1.58;;;21.80;65.60;;;;;;5039190;28;20036;-80
2023/07/30 09:51:02;;;;;;;3.78;2.17;;;21.90;65.50;;;;;;5038328;28;20035;-80
2023/07/30 09:53:34;;;;;;;2.97;1.75;;;21.90;65.40;;;;;;5054840;28;20032;-80
2023/07/30 09:56:05;;;;;;;3.13;1.73;;;22.00;66.10;;;;;;5055485;28;20111;-80
2023/07/30 09:58:31;;;;;;;2.17;1.50;;;22.00;65.30;;;;;;5071585;28;20036;-80
2023/07/30 10:01:03;;;;;;;3.13;1.88;;;22.10;65.20;;;;;;5054893;28;20082;-80
2023/07/30 10:03:28;;;;;;;4.35;1.83;;;22.10;65.10;;;;;;5058671;28;20033;-80
2023/07/30 10:06:02;;;;;;;3.08;1.60;;;22.20;65.00;;;;;;5058443;28;20063;-80
2023/07/30 10:08:31;;;;;;;2.42;1.50;;;22.30;64.90;;;;;;5058426;28;20040;-80
2023/07/30 10:10:58;;;;;;;3.15;1.90;;;22.30;64.70;;;;;;5058902;28;20040;-81
2023/07/30 10:13:25;;;;;;;2.75;1.40;;;22.40;64.70;;;;;;5059274;28;20318;-80
2023/07/30 10:15:52;;;;;;;2.67;1.30;;;22.40;64.50;;;;;;5042265;28;20036;-80
2023/07/30 10:18:18;;;;;;;2.67;1.40;;;22.50;64.50;;;;;;5041688;28;20032;-80
2023/07/30 10:20:53;;;;;;;3.80;1.83;;;22.50;65.10;;;;;;5058541;28;20135;-80
2023/07/30 10:23:19;;;;;;;2.88;1.48;;;22.60;64.50;;;;;;5041461;28;20028;-85
2023/07/30 10:25:47;;;;;;;2.47;1.60;;;22.60;64.30;;;;;;5025642;28;20354;-81
2023/07/30 10:28:32;;;;;;;4.15;1.80;;;22.60;64.30;;;;;;5058427;28;20040;-79
2023/07/30 10:31:00;;;;;;;2.70;1.52;;;22.70;64.80;;;;;;5057903;28;20029;-78
2023/07/30 10:33:46;;;;;;;2.47;1.55;;;22.70;64.30;;;;;;5058103;28;20047;-79
2023/07/30 10:36:11;;;;;;;3.05;1.38;;;22.70;64.30;;;;;;5057669;28;20036;-79
2023/07/30 10:38:39;;;;;;;4.72;1.73;;;22.70;64.20;;;;;;5058188;28;20032;-79
2023/07/30 10:41:11;;;;;;;2.30;1.58;;;22.70;64.20;;;;;;5041830;28;20032;-79
2023/07/30 10:43:40;;;;;;;4.10;1.65;;;22.70;64.20;;;;;;5057951;28;20028;-79
2023/07/30 10:46:08;;;;;;;3.08;1.48;;;22.80;64.20;;;;;;5041261;28;20041;-79
2023/07/30 10:48:44;;;;;;;2.90;1.50;;;22.80;64.20;;;;;;5057728;28;20102;-79
2023/07/30 10:51:18;;;;;;;2.80;1.40;;;22.80;64.20;;;;;;5074772;28;20068;-79
2023/07/30 10:53:49;;;;;;;1.55;1.30;;;22.80;64.10;;;;;;5075941;28;20380;-79
2023/07/30 10:56:17;;;;;;;3.90;1.38;;;22.80;64.10;;;;;;5041663;28;20450;-79
2023/07/30 10:58:48;;;;;;;1.73;1.23;;;22.80;64.00;;;;;;5075208;28;20032;-79
2023/07/30 11:01:14;;;;;;;2.50;1.30;;;22.90;64.10;;;;;;5041935;28;20039;-79
2023/07/30 11:03:39;;;;;;;2.35;1.23;;;22.90;64.00;;;;;;5040972;28;20127;-79
2023/07/30 11:06:05;;;;;;;1.45;1.00;;;22.90;64.00;;;;;;5041522;28;20036;-79
2023/07/30 11:08:39;;;;;;;3.05;1.45;;;22.90;63.90;;;;;;5008028;28;20389;-79
2023/07/30 11:11:06;;;;;;;2.63;1.30;;;23.00;63.90;;;;;;5057473;28;20445;-79
2023/07/30 11:13:41;;;;;;;1.85;1.20;;;23.00;63.90;;;;;;5056882;28;20021;-79
2023/07/30 11:16:09;;;;;;;2.10;1.40;;;23.00;63.90;;;;;;5057334;28;20033;-79
2023/07/30 11:18:37;;;;;;;3.03;1.60;;;23.10;64.00;;;;;;5057325;28;20035;-79
2023/07/30 11:21:07;;;;;;;1.75;1.10;;;23.10;64.00;;;;;;5057035;28;20052;-79
2023/07/30 11:23:34;;;;;;;3.50;1.48;;;23.20;64.00;;;;;;5057117;28;20025;-79
2023/07/30 11:26:05;;;;;;;2.67;1.33;;;23.20;63.90;;;;;;5057349;28;20036;-80
2023/07/30 11:28:35;;;;;;;2.92;1.33;;;23.20;64.00;;;;;;5057408;28;20047;-80
2023/07/30 11:31:03;;;;;;;3.83;1.65;;;23.30;64.00;;;;;;5073962;28;20497;-80
2023/07/30 11:33:29;;;;;;;2.67;1.40;;;23.30;64.00;;;;;;5056810;28;20039;-80
2023/07/30 11:35:56;;;;;;;2.15;1.20;;;23.30;64.00;;;;;;5023908;28;20036;-80
2023/07/30 11:38:27;;;;;;;2.15;1.20;;;23.30;64.00;;;;;;5056854;28;20043;-80
2023/07/30 11:40:54;;;;;;;2.08;1.23;;;23.40;64.10;;;;;;5056456;28;20477;-80
2023/07/30 11:43:23;;;;;;;3.17;1.17;;;23.40;64.10;;;;;;5056431;28;20031;-80
2023/07/30 11:46:10;;;;;;;2.10;1.15;;;23.50;64.20;;;;;;5039973;28;20071;-80
2023/07/30 11:48:36;;;;;;;3.28;1.23;;;23.50;64.20;;;;;;5039850;28;20028;-80
2023/07/30 11:51:02;;;;;;;1.80;1.05;;;23.50;64.10;;;;;;5074592;28;20450;-79
2023/07/30 11:53:49;;;;;;;2.13;1.27;;;23.60;64.10;;;;;;5056767;28;20059;-81
2023/07/30 11:56:26;;;;;;;2.90;1.25;;;23.60;64.20;;;;;;5056333;28;20061;-80
2023/07/30 11:59:01;;;;;;;3.47;1.15;;;23.60;64.10;;;;;;5056634;28;20407;-79
2023/07/30 12:01:31;;;;;;;2.20;1.02;;;23.70;64.10;;;;;;5056815;28;20035;-86
2023/07/30 12:03:58;;;;;;;2.70;1.13;;;23.70;64.10;;;;;;5056529;28;20046;-82
2023/07/30 12:06:24;;;;;;;2.40;1.10;;;23.70;64.10;;;;;;5039849;28;20033;-82
2023/07/30 12:08:53;;;;;;;2.38;1.15;;;23.70;64.10;;;;;;5056994;28;20052;-82
2023/07/30 12:11:22;;;;;;;2.55;1.27;;;23.70;64.10;;;;;;5039355;28;20040;-81
2023/07/30 12:13:50;;;;;;;2.20;1.05;;;23.80;64.10;;;;;;5056337;28;20538;-82
2023/07/30 12:16:16;;;;;;;3.50;1.50;;;23.80;64.10;;;;;;5056153;28;20028;-81
2023/07/30 12:18:42;;;;;;;1.92;1.33;;;23.80;64.10;;;;;;5039607;28;20051;-82
2023/07/30 12:21:10;;;;;;;3.20;1.23;;;23.90;64.10;;;;;;5038932;28;20052;-82
2023/07/30 12:23:37;;;;;;;2.50;1.17;;;23.90;64.10;;;;;;5039859;28;20029;-82
2023/07/30 12:26:06;;;;;;;4.18;1.55;;;23.90;64.00;;;;;;5055179;28;20032;-82
2023/07/30 12:28:34;;;;;;;3.10;1.17;;;23.90;64.00;;;;;;5056071;28;20036;-82
2023/07/30 12:31:00;;;;;;;3.38;1.30;;;24.00;64.00;;;;;;5056315;28;20492;-82
2023/07/30 12:33:25;;;;;;;1.85;1.00;;;24.00;64.00;;;;;;5055714;28;20028;-81
2023/07/30 12:35:51;;;;;;;2.05;1.05;;;24.00;64.00;;;;;;5055741;28;20170;-81
2023/07/30 12:38:17;;;;;;;2.20;1.10;;;24.00;64.00;;;;;;5039215;28;20039;-82
2023/07/30 12:40:43;;;;;;;2.35;1.15;;;24.00;64.00;;;;;;5039760;28;20492;-81
2023/07/30 12:43:09;;;;;;;1.10;0.80;;;24.00;64.00;;;;;;5055591;28;20439;-81
2023/07/30 12:45:34;;;;;;;1.73;1.05;;;24.10;64.00;;;;;;5022758;28;20131;-81
2023/07/30 12:48:01;;;;;;;1.75;0.80;;;24.10;64.00;;;;;;5055572;28;20032;-80